Pisgah Forest, North Carolina
Current Conditions -  °F | °C
As of 4:54 AM on Saturday 22 Nov 2014 (Local Time) from KAVL Reporting Station
Clear Clear  
Wind Chill: 22°   Ceiling: Unl
Heat Index: 22°   Visibility: 10mi
Dew Point: 17°   Wind: 0mph
Humidity: 82%   Direction: NA
Pressure: 30.48"   Gusts: NA
Location:  35.25°N, 82.7°W
Report Text: KAVL 220954Z AUTO 00000KT 10SM CLR M06/M08 A3048 RMK AO2 SLP330 T10561083
Loading
Personal Weather Stations






























Interactive Weather Map New forecast layout! Learn more

10-Day Weather Forecast

Advertisements
Track Severe Weather on mobile